sensor_id;sensor_type;location;lat;lon;timestamp;temperature;humidity
82243;DHT22;71844;51.528;4.442;2023-09-19T00:00:44;15.30;74.40
82243;DHT22;71844;51.528;4.442;2023-09-19T00:03:14;15.20;74.60
82243;DHT22;71844;51.528;4.442;2023-09-19T00:05:41;15.20;74.70
82243;DHT22;71844;51.528;4.442;2023-09-19T00:08:12;15.20;74.70
82243;DHT22;71844;51.528;4.442;2023-09-19T00:10:43;15.10;74.70
82243;DHT22;71844;51.528;4.442;2023-09-19T00:13:10;15.10;74.70
82243;DHT22;71844;51.528;4.442;2023-09-19T00:15:47;15.10;74.60
82243;DHT22;71844;51.528;4.442;2023-09-19T00:18:18;15.10;74.70
82243;DHT22;71844;51.528;4.442;2023-09-19T00:20:47;15.00;74.60
82243;DHT22;71844;51.528;4.442;2023-09-19T00:23:19;15.00;74.50
82243;DHT22;71844;51.528;4.442;2023-09-19T00:25:47;15.00;74.40
82243;DHT22;71844;51.528;4.442;2023-09-19T00:28:14;15.00;74.30
82243;DHT22;71844;51.528;4.442;2023-09-19T00:30:43;14.90;74.20
82243;DHT22;71844;51.528;4.442;2023-09-19T00:33:10;14.90;74.00
82243;DHT22;71844;51.528;4.442;2023-09-19T00:35:50;14.90;73.90
82243;DHT22;71844;51.528;4.442;2023-09-19T00:38:17;14.90;73.40
82243;DHT22;71844;51.528;4.442;2023-09-19T00:40:48;14.90;73.60
82243;DHT22;71844;51.528;4.442;2023-09-19T00:43:15;14.80;73.40
82243;DHT22;71844;51.528;4.442;2023-09-19T00:45:45;14.80;73.20
82243;DHT22;71844;51.528;4.442;2023-09-19T00:48:12;14.80;73.00
82243;DHT22;71844;51.528;4.442;2023-09-19T00:50:41;14.80;72.90
82243;DHT22;71844;51.528;4.442;2023-09-19T00:53:09;14.70;72.70
82243;DHT22;71844;51.528;4.442;2023-09-19T00:55:40;14.70;72.70
82243;DHT22;71844;51.528;4.442;2023-09-19T00:58:10;14.70;72.60
82243;DHT22;71844;51.528;4.442;2023-09-19T01:00:37;14.70;72.40
82243;DHT22;71844;51.528;4.442;2023-09-19T01:03:05;14.70;72.40
82243;DHT22;71844;51.528;4.442;2023-09-19T01:05:36;14.70;72.20
82243;DHT22;71844;51.528;4.442;2023-09-19T01:08:03;14.70;72.10
82243;DHT22;71844;51.528;4.442;2023-09-19T01:10:30;14.70;72.00
82243;DHT22;71844;51.528;4.442;2023-09-19T01:13:09;14.70;71.90
82243;DHT22;71844;51.528;4.442;2023-09-19T01:15:49;14.70;71.70
82243;DHT22;71844;51.528;4.442;2023-09-19T01:29:48;14.60;71.50
82243;DHT22;71844;51.528;4.442;2023-09-19T01:32:20;14.60;71.40
82243;DHT22;71844;51.528;4.442;2023-09-19T01:34:56;14.60;71.30
82243;DHT22;71844;51.528;4.442;2023-09-19T01:37:25;14.60;71.30
82243;DHT22;71844;51.528;4.442;2023-09-19T01:40:06;14.50;71.20
82243;DHT22;71844;51.528;4.442;2023-09-19T01:45:57;14.50;70.80
82243;DHT22;71844;51.528;4.442;2023-09-19T01:51:07;14.50;70.50
82243;DHT22;71844;51.528;4.442;2023-09-19T01:53:41;14.40;70.60
82243;DHT22;71844;51.528;4.442;2023-09-19T01:56:16;14.50;70.40
82243;DHT22;71844;51.528;4.442;2023-09-19T01:58:48;14.40;70.30
82243;DHT22;71844;51.528;4.442;2023-09-19T02:01:20;14.40;70.10
82243;DHT22;71844;51.528;4.442;2023-09-19T02:03:49;14.40;70.20
82243;DHT22;71844;51.528;4.442;2023-09-19T02:06:17;14.40;70.10
82243;DHT22;71844;51.528;4.442;2023-09-19T02:08:45;14.40;70.00
82243;DHT22;71844;51.528;4.442;2023-09-19T02:11:14;14.40;70.00
82243;DHT22;71844;51.528;4.442;2023-09-19T02:13:42;14.40;69.90
82243;DHT22;71844;51.528;4.442;2023-09-19T02:16:10;14.40;69.80
82243;DHT22;71844;51.528;4.442;2023-09-19T02:18:38;14.30;69.60
82243;DHT22;71844;51.528;4.442;2023-09-19T02:21:06;14.30;69.50
82243;DHT22;71844;51.528;4.442;2023-09-19T02:23:38;14.30;69.50
82243;DHT22;71844;51.528;4.442;2023-09-19T02:26:06;14.30;69.40
82243;DHT22;71844;51.528;4.442;2023-09-19T02:28:33;14.30;69.10
82243;DHT22;71844;51.528;4.442;2023-09-19T02:31:01;14.20;69.00
82243;DHT22;71844;51.528;4.442;2023-09-19T02:33:28;14.20;69.00
82243;DHT22;71844;51.528;4.442;2023-09-19T02:35:59;14.20;69.00
82243;DHT22;71844;51.528;4.442;2023-09-19T02:38:28;14.20;68.80
82243;DHT22;71844;51.528;4.442;2023-09-19T02:40:56;14.20;68.70
82243;DHT22;71844;51.528;4.442;2023-09-19T02:43:23;14.20;68.70
82243;DHT22;71844;51.528;4.442;2023-09-19T02:45:50;14.20;68.70
82243;DHT22;71844;51.528;4.442;2023-09-19T02:48:20;14.20;68.50
82243;DHT22;71844;51.528;4.442;2023-09-19T02:50:50;14.20;68.60
82243;DHT22;71844;51.528;4.442;2023-09-19T02:53:17;14.20;68.40
82243;DHT22;71844;51.528;4.442;2023-09-19T02:55:47;14.20;68.40
82243;DHT22;71844;51.528;4.442;2023-09-19T02:58:14;14.20;68.20
82243;DHT22;71844;51.528;4.442;2023-09-19T03:00:42;14.20;68.30
82243;DHT22;71844;51.528;4.442;2023-09-19T03:03:12;14.20;68.40
82243;DHT22;71844;51.528;4.442;2023-09-19T03:05:39;14.20;68.40
82243;DHT22;71844;51.528;4.442;2023-09-19T03:08:06;14.20;68.50
82243;DHT22;71844;51.528;4.442;2023-09-19T03:10:33;14.20;68.60
82243;DHT22;71844;51.528;4.442;2023-09-19T03:13:00;14.20;68.70
82243;DHT22;71844;51.528;4.442;2023-09-19T03:15:27;14.20;68.70
82243;DHT22;71844;51.528;4.442;2023-09-19T03:17:57;14.20;68.90
82243;DHT22;71844;51.528;4.442;2023-09-19T03:20:26;14.20;69.00
82243;DHT22;71844;51.528;4.442;2023-09-19T03:22:54;14.20;69.20
82243;DHT22;71844;51.528;4.442;2023-09-19T03:25:20;14.20;69.30
82243;DHT22;71844;51.528;4.442;2023-09-19T03:27:50;14.20;69.40
82243;DHT22;71844;51.528;4.442;2023-09-19T03:30:16;14.20;69.50
82243;DHT22;71844;51.528;4.442;2023-09-19T03:32:45;14.20;69.60
82243;DHT22;71844;51.528;4.442;2023-09-19T03:35:13;14.30;69.50
82243;DHT22;71844;51.528;4.442;2023-09-19T03:37:41;14.30;69.60
82243;DHT22;71844;51.528;4.442;2023-09-19T03:40:09;14.20;69.80
82243;DHT22;71844;51.528;4.442;2023-09-19T03:42:41;14.20;69.80
82243;DHT22;71844;51.528;4.442;2023-09-19T03:45:08;14.30;69.90
82243;DHT22;71844;51.528;4.442;2023-09-19T03:47:42;14.30;70.00
82243;DHT22;71844;51.528;4.442;2023-09-19T03:50:09;14.30;70.00
82243;DHT22;71844;51.528;4.442;2023-09-19T03:52:42;14.30;70.10
82243;DHT22;71844;51.528;4.442;2023-09-19T03:55:09;14.30;70.10
82243;DHT22;71844;51.528;4.442;2023-09-19T03:57:37;14.20;70.20
82243;DHT22;71844;51.528;4.442;2023-09-19T04:00:04;14.30;70.30
82243;DHT22;71844;51.528;4.442;2023-09-19T04:02:34;14.30;70.30
82243;DHT22;71844;51.528;4.442;2023-09-19T04:05:01;14.30;70.50
82243;DHT22;71844;51.528;4.442;2023-09-19T04:07:28;14.20;70.50
82243;DHT22;71844;51.528;4.442;2023-09-19T04:09:56;14.20;70.80
82243;DHT22;71844;51.528;4.442;2023-09-19T04:12:23;14.20;70.90
82243;DHT22;71844;51.528;4.442;2023-09-19T04:14:50;14.20;71.10
82243;DHT22;71844;51.528;4.442;2023-09-19T04:17:21;14.20;71.30
82243;DHT22;71844;51.528;4.442;2023-09-19T04:19:49;14.20;71.60
82243;DHT22;71844;51.528;4.442;2023-09-19T04:22:16;14.20;71.60
82243;DHT22;71844;51.528;4.442;2023-09-19T04:24:43;14.20;71.80
82243;DHT22;71844;51.528;4.442;2023-09-19T04:27:11;14.20;71.80
82243;DHT22;71844;51.528;4.442;2023-09-19T04:29:41;14.20;72.10
82243;DHT22;71844;51.528;4.442;2023-09-19T04:32:08;14.20;72.10
82243;DHT22;71844;51.528;4.442;2023-09-19T04:34:36;14.20;72.10
82243;DHT22;71844;51.528;4.442;2023-09-19T04:37:05;14.30;72.20
82243;DHT22;71844;51.528;4.442;2023-09-19T04:39:32;14.20;72.60
82243;DHT22;71844;51.528;4.442;2023-09-19T04:41:59;14.20;72.80
82243;DHT22;71844;51.528;4.442;2023-09-19T04:44:26;14.20;72.80
82243;DHT22;71844;51.528;4.442;2023-09-19T04:46:53;14.20;72.90
82243;DHT22;71844;51.528;4.442;2023-09-19T04:49:20;14.20;73.30
82243;DHT22;71844;51.528;4.442;2023-09-19T04:51:49;14.20;73.50
82243;DHT22;71844;51.528;4.442;2023-09-19T04:54:17;14.20;75.20
82243;DHT22;71844;51.528;4.442;2023-09-19T04:56:45;14.20;73.60
82243;DHT22;71844;51.528;4.442;2023-09-19T04:59:12;14.20;73.90
82243;DHT22;71844;51.528;4.442;2023-09-19T05:01:39;14.20;74.00
82243;DHT22;71844;51.528;4.442;2023-09-19T05:04:06;14.10;74.30
82243;DHT22;71844;51.528;4.442;2023-09-19T05:06:33;14.10;74.10
82243;DHT22;71844;51.528;4.442;2023-09-19T05:09:00;14.10;74.60
82243;DHT22;71844;51.528;4.442;2023-09-19T05:11:27;14.10;74.80
82243;DHT22;71844;51.528;4.442;2023-09-19T05:13:57;14.10;74.80
82243;DHT22;71844;51.528;4.442;2023-09-19T05:16:24;14.10;75.00
82243;DHT22;71844;51.528;4.442;2023-09-19T05:18:51;14.10;75.00
82243;DHT22;71844;51.528;4.442;2023-09-19T05:21:18;14.10;75.20
82243;DHT22;71844;51.528;4.442;2023-09-19T05:23:45;14.10;75.20
82243;DHT22;71844;51.528;4.442;2023-09-19T05:26:12;14.10;75.30
82243;DHT22;71844;51.528;4.442;2023-09-19T05:28:39;14.10;75.30
82243;DHT22;71844;51.528;4.442;2023-09-19T05:31:06;14.10;75.40
82243;DHT22;71844;51.528;4.442;2023-09-19T05:33:33;14.10;75.60
82243;DHT22;71844;51.528;4.442;2023-09-19T05:36:00;14.10;75.70
82243;DHT22;71844;51.528;4.442;2023-09-19T05:38:27;14.10;75.80
82243;DHT22;71844;51.528;4.442;2023-09-19T05:40:54;14.10;75.70
82243;DHT22;71844;51.528;4.442;2023-09-19T05:43:21;14.10;75.70
82243;DHT22;71844;51.528;4.442;2023-09-19T05:45:49;14.20;75.70
82243;DHT22;71844;51.528;4.442;2023-09-19T05:48:19;14.20;76.00
82243;DHT22;71844;51.528;4.442;2023-09-19T05:50:48;14.10;75.90
82243;DHT22;71844;51.528;4.442;2023-09-19T05:53:15;14.20;76.00
82243;DHT22;71844;51.528;4.442;2023-09-19T05:55:43;14.20;76.00
82243;DHT22;71844;51.528;4.442;2023-09-19T05:58:10;14.20;76.20
82243;DHT22;71844;51.528;4.442;2023-09-19T06:00:43;14.20;76.10
82243;DHT22;71844;51.528;4.442;2023-09-19T06:03:11;14.20;76.30
82243;DHT22;71844;51.528;4.442;2023-09-19T06:05:42;14.20;76.20
82243;DHT22;71844;51.528;4.442;2023-09-19T06:08:09;14.20;76.20
82243;DHT22;71844;51.528;4.442;2023-09-19T06:10:36;14.30;76.30
82243;DHT22;71844;51.528;4.442;2023-09-19T06:13:04;14.30;76.30
82243;DHT22;71844;51.528;4.442;2023-09-19T06:15:33;14.30;76.20
82243;DHT22;71844;51.528;4.442;2023-09-19T06:18:02;14.30;76.30
82243;DHT22;71844;51.528;4.442;2023-09-19T06:20:32;14.30;76.30
82243;DHT22;71844;51.528;4.442;2023-09-19T06:23:00;14.40;76.30
82243;DHT22;71844;51.528;4.442;2023-09-19T06:25:31;14.40;76.20
82243;DHT22;71844;51.528;4.442;2023-09-19T06:27:58;14.40;76.30
82243;DHT22;71844;51.528;4.442;2023-09-19T06:30:25;14.40;76.20
82243;DHT22;71844;51.528;4.442;2023-09-19T06:32:59;14.40;76.20
82243;DHT22;71844;51.528;4.442;2023-09-19T06:35:28;14.50;76.20
82243;DHT22;71844;51.528;4.442;2023-09-19T06:38:04;14.50;76.30
82243;DHT22;71844;51.528;4.442;2023-09-19T06:40:34;14.50;76.30
82243;DHT22;71844;51.528;4.442;2023-09-19T06:43:01;14.50;76.30
82243;DHT22;71844;51.528;4.442;2023-09-19T06:45:31;14.60;76.20
82243;DHT22;71844;51.528;4.442;2023-09-19T06:47:58;14.60;76.30
82243;DHT22;71844;51.528;4.442;2023-09-19T06:50:27;14.60;76.30
82243;DHT22;71844;51.528;4.442;2023-09-19T06:52:55;14.70;76.40
82243;DHT22;71844;51.528;4.442;2023-09-19T06:55:25;14.70;76.40
82243;DHT22;71844;51.528;4.442;2023-09-19T06:57:55;14.70;76.40
82243;DHT22;71844;51.528;4.442;2023-09-19T07:00:23;14.70;76.40
82243;DHT22;71844;51.528;4.442;2023-09-19T07:03:05;14.80;76.40
82243;DHT22;71844;51.528;4.442;2023-09-19T07:05:35;14.80;76.50
82243;DHT22;71844;51.528;4.442;2023-09-19T07:08:07;14.80;76.20
82243;DHT22;71844;51.528;4.442;2023-09-19T07:10:34;14.90;76.10
82243;DHT22;71844;51.528;4.442;2023-09-19T07:13:04;14.90;76.20
82243;DHT22;71844;51.528;4.442;2023-09-19T07:15:33;14.90;76.20
82243;DHT22;71844;51.528;4.442;2023-09-19T07:18:02;15.00;76.00
82243;DHT22;71844;51.528;4.442;2023-09-19T07:20:29;15.00;76.10
82243;DHT22;71844;51.528;4.442;2023-09-19T07:22:59;15.00;76.00
82243;DHT22;71844;51.528;4.442;2023-09-19T07:25:29;15.10;75.90
82243;DHT22;71844;51.528;4.442;2023-09-19T07:27:57;15.10;75.80
82243;DHT22;71844;51.528;4.442;2023-09-19T07:30:28;15.20;75.70
82243;DHT22;71844;51.528;4.442;2023-09-19T07:32:55;15.30;75.60
82243;DHT22;71844;51.528;4.442;2023-09-19T07:35:22;15.30;75.50
82243;DHT22;71844;51.528;4.442;2023-09-19T07:37:50;15.40;75.50
82243;DHT22;71844;51.528;4.442;2023-09-19T07:40:19;15.40;75.30
82243;DHT22;71844;51.528;4.442;2023-09-19T07:42:47;15.50;75.40
82243;DHT22;71844;51.528;4.442;2023-09-19T07:45:14;15.50;75.20
82243;DHT22;71844;51.528;4.442;2023-09-19T07:47:45;15.60;75.10
82243;DHT22;71844;51.528;4.442;2023-09-19T07:50:13;15.70;74.80
82243;DHT22;71844;51.528;4.442;2023-09-19T07:52:40;15.70;74.70
82243;DHT22;71844;51.528;4.442;2023-09-19T07:55:07;15.70;74.50
82243;DHT22;71844;51.528;4.442;2023-09-19T07:57:37;15.80;74.40
82243;DHT22;71844;51.528;4.442;2023-09-19T08:00:05;15.80;74.30
82243;DHT22;71844;51.528;4.442;2023-09-19T08:02:37;15.90;74.20
82243;DHT22;71844;51.528;4.442;2023-09-19T08:05:08;15.90;73.80
82243;DHT22;71844;51.528;4.442;2023-09-19T08:07:40;16.00;73.90
82243;DHT22;71844;51.528;4.442;2023-09-19T08:10:07;16.00;73.60
82243;DHT22;71844;51.528;4.442;2023-09-19T08:12:35;16.10;73.70
82243;DHT22;71844;51.528;4.442;2023-09-19T08:15:21;16.20;73.40
82243;DHT22;71844;51.528;4.442;2023-09-19T08:17:48;16.20;73.00
82243;DHT22;71844;51.528;4.442;2023-09-19T08:20:16;16.30;73.20
82243;DHT22;71844;51.528;4.442;2023-09-19T08:22:49;16.30;73.00
82243;DHT22;71844;51.528;4.442;2023-09-19T08:28:05;16.30;72.70
82243;DHT22;71844;51.528;4.442;2023-09-19T08:30:35;16.30;72.80
82243;DHT22;71844;51.528;4.442;2023-09-19T08:33:02;16.40;72.70
82243;DHT22;71844;51.528;4.442;2023-09-19T08:35:32;16.50;72.70
82243;DHT22;71844;51.528;4.442;2023-09-19T08:37:59;16.50;72.60
82243;DHT22;71844;51.528;4.442;2023-09-19T08:40:37;16.60;72.40
82243;DHT22;71844;51.528;4.442;2023-09-19T08:43:06;16.70;72.20
82243;DHT22;71844;51.528;4.442;2023-09-19T08:45:34;16.70;71.90
82243;DHT22;71844;51.528;4.442;2023-09-19T08:48:26;16.80;72.00
82243;DHT22;71844;51.528;4.442;2023-09-19T08:51:07;16.80;71.40
82243;DHT22;71844;51.528;4.442;2023-09-19T08:56:12;16.80;71.70
82243;DHT22;71844;51.528;4.442;2023-09-19T08:58:49;16.80;71.70
82243;DHT22;71844;51.528;4.442;2023-09-19T09:01:20;16.90;71.60
82243;DHT22;71844;51.528;4.442;2023-09-19T09:03:55;17.10;71.80
82243;DHT22;71844;51.528;4.442;2023-09-19T09:06:23;17.50;71.70
82243;DHT22;71844;51.528;4.442;2023-09-19T09:08:53;17.90;71.50
82243;DHT22;71844;51.528;4.442;2023-09-19T09:11:20;18.30;70.70
82243;DHT22;71844;51.528;4.442;2023-09-19T09:13:50;18.60;70.10
82243;DHT22;71844;51.528;4.442;2023-09-19T09:16:23;19.00;69.50
82243;DHT22;71844;51.528;4.442;2023-09-19T09:18:53;19.40;67.50
82243;DHT22;71844;51.528;4.442;2023-09-19T09:21:22;19.80;64.20
82243;DHT22;71844;51.528;4.442;2023-09-19T09:23:51;20.20;66.00
82243;DHT22;71844;51.528;4.442;2023-09-19T09:26:40;20.30;64.90
82243;DHT22;71844;51.528;4.442;2023-09-19T09:29:07;20.60;63.10
82243;DHT22;71844;51.528;4.442;2023-09-19T09:31:35;20.90;63.00
82243;DHT22;71844;51.528;4.442;2023-09-19T09:34:01;21.20;62.10
82243;DHT22;71844;51.528;4.442;2023-09-19T09:36:40;21.50;61.50
82243;DHT22;71844;51.528;4.442;2023-09-19T09:39:10;21.60;59.60
82243;DHT22;71844;51.528;4.442;2023-09-19T09:41:51;21.60;60.30
82243;DHT22;71844;51.528;4.442;2023-09-19T09:44:18;21.50;55.20
82243;DHT22;71844;51.528;4.442;2023-09-19T09:46:47;21.50;57.90
82243;DHT22;71844;51.528;4.442;2023-09-19T09:49:25;21.50;57.90
82243;DHT22;71844;51.528;4.442;2023-09-19T09:52:05;21.70;57.30
82243;DHT22;71844;51.528;4.442;2023-09-19T09:54:37;21.90;57.20
82243;DHT22;71844;51.528;4.442;2023-09-19T09:57:08;21.90;56.80
82243;DHT22;71844;51.528;4.442;2023-09-19T09:59:50;21.80;56.40
82243;DHT22;71844;51.528;4.442;2023-09-19T10:02:24;21.50;56.10
82243;DHT22;71844;51.528;4.442;2023-09-19T10:04:53;21.40;56.40
82243;DHT22;71844;51.528;4.442;2023-09-19T10:07:31;21.50;56.40
82243;DHT22;71844;51.528;4.442;2023-09-19T10:13:21;22.00;54.60
82243;DHT22;71844;51.528;4.442;2023-09-19T10:15:50;22.30;54.20
82243;DHT22;71844;51.528;4.442;2023-09-19T10:18:38;22.20;52.80
82243;DHT22;71844;51.528;4.442;2023-09-19T10:21:09;22.30;54.00
82243;DHT22;71844;51.528;4.442;2023-09-19T10:23:36;22.40;53.50
82243;DHT22;71844;51.528;4.442;2023-09-19T10:28:51;22.70;52.70
82243;DHT22;71844;51.528;4.442;2023-09-19T10:31:20;22.80;52.40
82243;DHT22;71844;51.528;4.442;2023-09-19T10:33:51;22.90;51.90
82243;DHT22;71844;51.528;4.442;2023-09-19T10:36:21;22.80;51.40
82243;DHT22;71844;51.528;4.442;2023-09-19T10:38:54;22.40;51.50
82243;DHT22;71844;51.528;4.442;2023-09-19T10:41:23;22.20;51.80
82243;DHT22;71844;51.528;4.442;2023-09-19T10:43:53;22.40;52.40
82243;DHT22;71844;51.528;4.442;2023-09-19T10:46:22;22.80;51.30
82243;DHT22;71844;51.528;4.442;2023-09-19T10:48:50;23.10;51.20
82243;DHT22;71844;51.528;4.442;2023-09-19T10:51:22;23.10;50.70
82243;DHT22;71844;51.528;4.442;2023-09-19T10:54:01;23.00;50.90
82243;DHT22;71844;51.528;4.442;2023-09-19T10:56:40;22.80;51.00
82243;DHT22;71844;51.528;4.442;2023-09-19T10:59:10;22.80;50.70
82243;DHT22;71844;51.528;4.442;2023-09-19T11:07:05;23.90;49.40
82243;DHT22;71844;51.528;4.442;2023-09-19T11:15:03;24.30;47.80
82243;DHT22;71844;51.528;4.442;2023-09-19T11:17:43;24.10;48.00
82243;DHT22;71844;51.528;4.442;2023-09-19T11:20:16;24.10;49.00
82243;DHT22;71844;51.528;4.442;2023-09-19T11:30:50;24.10;48.20
82243;DHT22;71844;51.528;4.442;2023-09-19T11:33:20;23.80;49.00
82243;DHT22;71844;51.528;4.442;2023-09-19T11:36:09;23.40;49.50
82243;DHT22;71844;51.528;4.442;2023-09-19T11:41:38;22.60;50.60
82243;DHT22;71844;51.528;4.442;2023-09-19T11:46:52;22.00;51.80
82243;DHT22;71844;51.528;4.442;2023-09-19T11:49:26;21.80;52.40
82243;DHT22;71844;51.528;4.442;2023-09-19T11:51:57;21.50;52.80
82243;DHT22;71844;51.528;4.442;2023-09-19T11:54:24;21.30;53.20
82243;DHT22;71844;51.528;4.442;2023-09-19T11:56:55;21.20;53.70
82243;DHT22;71844;51.528;4.442;2023-09-19T12:02:05;21.00;54.20
82243;DHT22;71844;51.528;4.442;2023-09-19T12:04:43;21.00;54.50
82243;DHT22;71844;51.528;4.442;2023-09-19T12:07:14;20.90;54.90
82243;DHT22;71844;51.528;4.442;2023-09-19T12:09:47;20.80;55.00
82243;DHT22;71844;51.528;4.442;2023-09-19T12:12:25;20.80;55.20
82243;DHT22;71844;51.528;4.442;2023-09-19T12:14:56;20.80;55.40
82243;DHT22;71844;51.528;4.442;2023-09-19T12:17:39;20.80;55.10
82243;DHT22;71844;51.528;4.442;2023-09-19T12:20:08;20.90;55.20
82243;DHT22;71844;51.528;4.442;2023-09-19T12:22:43;20.90;55.30
82243;DHT22;71844;51.528;4.442;2023-09-19T12:25:13;20.90;55.10
82243;DHT22;71844;51.528;4.442;2023-09-19T12:27:47;20.80;55.10
82243;DHT22;71844;51.528;4.442;2023-09-19T12:30:15;20.70;55.30
82243;DHT22;71844;51.528;4.442;2023-09-19T12:32:47;20.60;55.60
82243;DHT22;71844;51.528;4.442;2023-09-19T12:35:28;20.70;55.80
82243;DHT22;71844;51.528;4.442;2023-09-19T12:37:57;20.80;56.00
82243;DHT22;71844;51.528;4.442;2023-09-19T12:40:25;20.80;55.90
82243;DHT22;71844;51.528;4.442;2023-09-19T12:42:57;20.80;55.90
82243;DHT22;71844;51.528;4.442;2023-09-19T12:45:30;20.80;55.80
82243;DHT22;71844;51.528;4.442;2023-09-19T12:51:01;20.90;55.90
82243;DHT22;71844;51.528;4.442;2023-09-19T12:53:43;20.90;55.60
82243;DHT22;71844;51.528;4.442;2023-09-19T12:56:16;20.80;55.80
82243;DHT22;71844;51.528;4.442;2023-09-19T12:58:55;20.80;55.90
82243;DHT22;71844;51.528;4.442;2023-09-19T13:01:26;20.80;55.90
82243;DHT22;71844;51.528;4.442;2023-09-19T13:04:16;20.80;55.90
82243;DHT22;71844;51.528;4.442;2023-09-19T13:06:48;20.90;55.60
82243;DHT22;71844;51.528;4.442;2023-09-19T13:09:17;21.00;55.80
82243;DHT22;71844;51.528;4.442;2023-09-19T13:11:47;21.20;55.40
82243;DHT22;71844;51.528;4.442;2023-09-19T13:16:55;21.60;54.50
82243;DHT22;71844;51.528;4.442;2023-09-19T13:19:44;21.60;53.90
82243;DHT22;71844;51.528;4.442;2023-09-19T13:25:13;21.40;54.10
82243;DHT22;71844;51.528;4.442;2023-09-19T13:27:50;21.20;54.50
82243;DHT22;71844;51.528;4.442;2023-09-19T13:30:19;21.10;54.50
82243;DHT22;71844;51.528;4.442;2023-09-19T13:32:47;21.00;54.80
82243;DHT22;71844;51.528;4.442;2023-09-19T13:35:15;21.00;54.60
82243;DHT22;71844;51.528;4.442;2023-09-19T13:37:43;21.10;54.40
82243;DHT22;71844;51.528;4.442;2023-09-19T13:40:13;21.00;54.60
82243;DHT22;71844;51.528;4.442;2023-09-19T13:42:41;20.90;54.70
82243;DHT22;71844;51.528;4.442;2023-09-19T13:45:08;20.80;54.60
82243;DHT22;71844;51.528;4.442;2023-09-19T13:47:39;20.70;54.90
82243;DHT22;71844;51.528;4.442;2023-09-19T13:50:07;20.70;55.00
82243;DHT22;71844;51.528;4.442;2023-09-19T13:52:35;20.60;55.20
82243;DHT22;71844;51.528;4.442;2023-09-19T13:55:03;20.60;55.30
82243;DHT22;71844;51.528;4.442;2023-09-19T13:57:30;20.70;55.30
82243;DHT22;71844;51.528;4.442;2023-09-19T13:59:57;20.70;55.50
82243;DHT22;71844;51.528;4.442;2023-09-19T14:02:24;20.80;55.50
82243;DHT22;71844;51.528;4.442;2023-09-19T14:04:52;20.80;55.50
82243;DHT22;71844;51.528;4.442;2023-09-19T14:07:19;20.90;55.50
82243;DHT22;71844;51.528;4.442;2023-09-19T14:09:47;20.90;55.50
82243;DHT22;71844;51.528;4.442;2023-09-19T14:12:15;20.90;55.60
82243;DHT22;71844;51.528;4.442;2023-09-19T14:14:42;20.80;55.70
82243;DHT22;71844;51.528;4.442;2023-09-19T14:17:09;20.80;55.80
82243;DHT22;71844;51.528;4.442;2023-09-19T14:19:36;20.70;56.10
82243;DHT22;71844;51.528;4.442;2023-09-19T14:22:04;20.70;56.20
82243;DHT22;71844;51.528;4.442;2023-09-19T14:24:35;20.60;56.30
82243;DHT22;71844;51.528;4.442;2023-09-19T14:27:03;20.50;56.50
82243;DHT22;71844;51.528;4.442;2023-09-19T14:29:31;20.50;56.60
82243;DHT22;71844;51.528;4.442;2023-09-19T14:31:58;20.40;56.70
82243;DHT22;71844;51.528;4.442;2023-09-19T14:34:27;20.30;56.70
82243;DHT22;71844;51.528;4.442;2023-09-19T14:36:54;20.30;56.70
82243;DHT22;71844;51.528;4.442;2023-09-19T14:39:21;20.20;56.90
82243;DHT22;71844;51.528;4.442;2023-09-19T14:41:48;20.20;57.10
82243;DHT22;71844;51.528;4.442;2023-09-19T14:44:16;20.10;57.30
82243;DHT22;71844;51.528;4.442;2023-09-19T14:46:43;20.20;57.40
82243;DHT22;71844;51.528;4.442;2023-09-19T14:49:12;20.30;57.60
82243;DHT22;71844;51.528;4.442;2023-09-19T14:51:39;20.40;57.40
82243;DHT22;71844;51.528;4.442;2023-09-19T14:54:14;20.50;57.30
82243;DHT22;71844;51.528;4.442;2023-09-19T14:56:44;20.50;57.40
82243;DHT22;71844;51.528;4.442;2023-09-19T14:59:12;20.40;57.50
82243;DHT22;71844;51.528;4.442;2023-09-19T15:01:39;20.40;57.50
82243;DHT22;71844;51.528;4.442;2023-09-19T15:04:09;20.30;57.70
82243;DHT22;71844;51.528;4.442;2023-09-19T15:06:36;20.30;57.90
82243;DHT22;71844;51.528;4.442;2023-09-19T15:09:03;20.20;58.20
82243;DHT22;71844;51.528;4.442;2023-09-19T15:11:31;20.10;58.30
82243;DHT22;71844;51.528;4.442;2023-09-19T15:13:58;20.00;58.50
82243;DHT22;71844;51.528;4.442;2023-09-19T15:16:26;20.00;58.70
82243;DHT22;71844;51.528;4.442;2023-09-19T15:18:54;20.00;58.70
82243;DHT22;71844;51.528;4.442;2023-09-19T15:21:22;19.90;58.70
82243;DHT22;71844;51.528;4.442;2023-09-19T15:23:50;20.00;58.70
82243;DHT22;71844;51.528;4.442;2023-09-19T15:26:17;20.00;58.70
82243;DHT22;71844;51.528;4.442;2023-09-19T15:28:47;20.00;58.80
82243;DHT22;71844;51.528;4.442;2023-09-19T15:31:15;20.00;58.90
82243;DHT22;71844;51.528;4.442;2023-09-19T15:33:42;20.00;58.90
82243;DHT22;71844;51.528;4.442;2023-09-19T15:36:13;20.00;59.00
82243;DHT22;71844;51.528;4.442;2023-09-19T15:39:00;19.90;58.90
82243;DHT22;71844;51.528;4.442;2023-09-19T15:41:35;19.90;59.10
82243;DHT22;71844;51.528;4.442;2023-09-19T15:44:11;19.90;59.00
82243;DHT22;71844;51.528;4.442;2023-09-19T15:46:38;19.80;59.20
82243;DHT22;71844;51.528;4.442;2023-09-19T15:49:06;19.80;59.30
82243;DHT22;71844;51.528;4.442;2023-09-19T15:51:34;19.80;59.50
82243;DHT22;71844;51.528;4.442;2023-09-19T15:54:08;19.70;59.50
82243;DHT22;71844;51.528;4.442;2023-09-19T15:56:35;19.70;59.60
82243;DHT22;71844;51.528;4.442;2023-09-19T15:59:02;19.70;59.60
82243;DHT22;71844;51.528;4.442;2023-09-19T16:01:29;19.70;59.60
82243;DHT22;71844;51.528;4.442;2023-09-19T16:03:57;19.70;59.70
82243;DHT22;71844;51.528;4.442;2023-09-19T16:06:28;19.60;59.70
82243;DHT22;71844;51.528;4.442;2023-09-19T16:08:57;19.70;59.70
82243;DHT22;71844;51.528;4.442;2023-09-19T16:11:26;19.70;59.70
82243;DHT22;71844;51.528;4.442;2023-09-19T16:13:54;19.70;59.70
82243;DHT22;71844;51.528;4.442;2023-09-19T16:16:22;19.70;59.90
82243;DHT22;71844;51.528;4.442;2023-09-19T16:18:52;19.70;59.90
82243;DHT22;71844;51.528;4.442;2023-09-19T16:21:24;19.60;60.10
82243;DHT22;71844;51.528;4.442;2023-09-19T16:23:51;19.60;60.20
82243;DHT22;71844;51.528;4.442;2023-09-19T16:26:19;19.60;60.30
82243;DHT22;71844;51.528;4.442;2023-09-19T16:28:50;19.50;60.40
82243;DHT22;71844;51.528;4.442;2023-09-19T16:31:18;19.50;60.40
82243;DHT22;71844;51.528;4.442;2023-09-19T16:33:46;19.50;60.50
82243;DHT22;71844;51.528;4.442;2023-09-19T16:36:15;19.40;60.60
82243;DHT22;71844;51.528;4.442;2023-09-19T16:38:43;19.40;61.00
82243;DHT22;71844;51.528;4.442;2023-09-19T16:41:11;19.40;61.10
82243;DHT22;71844;51.528;4.442;2023-09-19T16:43:40;19.30;61.20
82243;DHT22;71844;51.528;4.442;2023-09-19T16:46:09;19.30;61.30
82243;DHT22;71844;51.528;4.442;2023-09-19T16:48:40;19.30;61.50
82243;DHT22;71844;51.528;4.442;2023-09-19T16:51:27;19.20;61.70